sensor_id;sensor_type;location;lat;lon;timestamp;P1;durP1;ratioP1;P2;durP2;ratioP2
6093;SDS011;19964;42.060;24.700;2022-08-05T00:02:21;4.80;;;4.50;;
6093;SDS011;19964;42.060;24.700;2022-08-05T00:04:48;5.00;;;4.70;;
6093;SDS011;19964;42.060;24.700;2022-08-05T00:07:15;5.10;;;4.70;;
6093;SDS011;19964;42.060;24.700;2022-08-05T00:09:42;5.10;;;4.80;;
6093;SDS011;19964;42.060;24.700;2022-08-05T00:12:09;5.20;;;4.70;;
6093;SDS011;19964;42.060;24.700;2022-08-05T00:14:37;5.40;;;4.90;;
6093;SDS011;19964;42.060;24.700;2022-08-05T00:17:04;5.20;;;4.90;;
6093;SDS011;19964;42.060;24.700;2022-08-05T00:19:31;5.30;;;4.90;;
6093;SDS011;19964;42.060;24.700;2022-08-05T00:21:58;5.50;;;5.10;;
6093;SDS011;19964;42.060;24.700;2022-08-05T00:24:25;4.95;;;4.65;;
6093;SDS011;19964;42.060;24.700;2022-08-05T00:26:52;5.40;;;5.00;;
6093;SDS011;19964;42.060;24.700;2022-08-05T00:29:19;6.97;;;5.17;;
6093;SDS011;19964;42.060;24.700;2022-08-05T00:31:48;5.10;;;4.80;;
6093;SDS011;19964;42.060;24.700;2022-08-05T00:34:15;5.53;;;5.03;;
6093;SDS011;19964;42.060;24.700;2022-08-05T00:36:42;5.50;;;5.10;;
6093;SDS011;19964;42.060;24.700;2022-08-05T00:39:09;5.20;;;4.90;;
6093;SDS011;19964;42.060;24.700;2022-08-05T00:41:37;5.10;;;4.80;;
6093;SDS011;19964;42.060;24.700;2022-08-05T00:44:04;5.10;;;4.80;;
6093;SDS011;19964;42.060;24.700;2022-08-05T00:46:31;5.90;;;5.35;;
6093;SDS011;19964;42.060;24.700;2022-08-05T00:48:59;5.40;;;5.00;;
6093;SDS011;19964;42.060;24.700;2022-08-05T00:51:26;5.50;;;5.00;;
6093;SDS011;19964;42.060;24.700;2022-08-05T00:53:53;5.80;;;5.30;;
6093;SDS011;19964;42.060;24.700;2022-08-05T01:01:14;5.80;;;4.75;;
6093;SDS011;19964;42.060;24.700;2022-08-05T01:03:41;5.25;;;4.85;;
6093;SDS011;19964;42.060;24.700;2022-08-05T01:06:09;9.05;;;5.05;;
6093;SDS011;19964;42.060;24.700;2022-08-05T01:08:37;10.00;;;5.20;;
6093;SDS011;19964;42.060;24.700;2022-08-05T01:11:06;5.23;;;4.90;;
6093;SDS011;19964;42.060;24.700;2022-08-05T01:13:38;6.83;;;5.10;;
6093;SDS011;19964;42.060;24.700;2022-08-05T01:16:22;6.05;;;4.80;;
6093;SDS011;19964;42.060;24.700;2022-08-05T01:18:57;5.27;;;4.87;;
6093;SDS011;19964;42.060;24.700;2022-08-05T01:21:40;5.43;;;5.03;;
6093;SDS011;19964;42.060;24.700;2022-08-05T01:24:33;5.33;;;5.00;;
6093;SDS011;19964;42.060;24.700;2022-08-05T01:27:18;5.57;;;5.07;;
6093;SDS011;19964;42.060;24.700;2022-08-05T01:30:00;5.83;;;5.33;;
6093;SDS011;19964;42.060;24.700;2022-08-05T01:32:30;5.67;;;5.33;;
6093;SDS011;19964;42.060;24.700;2022-08-05T01:35:02;5.00;;;4.70;;
6093;SDS011;19964;42.060;24.700;2022-08-05T01:37:34;5.20;;;4.90;;
6093;SDS011;19964;42.060;24.700;2022-08-05T01:40:10;5.17;;;4.67;;
6093;SDS011;19964;42.060;24.700;2022-08-05T01:42:40;5.53;;;5.20;;
6093;SDS011;19964;42.060;24.700;2022-08-05T01:45:11;5.87;;;5.47;;
6093;SDS011;19964;42.060;24.700;2022-08-05T01:47:41;5.87;;;5.37;;
6093;SDS011;19964;42.060;24.700;2022-08-05T01:50:11;5.60;;;5.20;;
6093;SDS011;19964;42.060;24.700;2022-08-05T01:52:43;5.60;;;5.20;;
6093;SDS011;19964;42.060;24.700;2022-08-05T01:55:12;5.73;;;5.10;;
6093;SDS011;19964;42.060;24.700;2022-08-05T01:57:44;5.53;;;5.13;;
6093;SDS011;19964;42.060;24.700;2022-08-05T02:00:14;5.80;;;5.30;;
6093;SDS011;19964;42.060;24.700;2022-08-05T02:02:44;5.30;;;5.00;;
6093;SDS011;19964;42.060;24.700;2022-08-05T02:05:17;5.70;;;4.90;;
6093;SDS011;19964;42.060;24.700;2022-08-05T02:07:46;7.20;;;5.60;;
6093;SDS011;19964;42.060;24.700;2022-08-05T02:10:14;5.85;;;5.55;;
6093;SDS011;19964;42.060;24.700;2022-08-05T02:12:42;5.70;;;5.20;;
6093;SDS011;19964;42.060;24.700;2022-08-05T02:15:14;5.15;;;4.85;;
6093;SDS011;19964;42.060;24.700;2022-08-05T02:17:49;5.25;;;4.95;;
6093;SDS011;19964;42.060;24.700;2022-08-05T02:20:19;5.50;;;5.20;;
6093;SDS011;19964;42.060;24.700;2022-08-05T02:22:50;6.80;;;5.20;;
6093;SDS011;19964;42.060;24.700;2022-08-05T02:25:23;5.67;;;5.10;;
6093;SDS011;19964;42.060;24.700;2022-08-05T02:27:51;5.77;;;5.33;;
6093;SDS011;19964;42.060;24.700;2022-08-05T02:30:23;5.47;;;5.17;;
6093;SDS011;19964;42.060;24.700;2022-08-05T02:32:53;5.60;;;5.20;;
6093;SDS011;19964;42.060;24.700;2022-08-05T02:35:21;5.80;;;5.40;;
6093;SDS011;19964;42.060;24.700;2022-08-05T02:37:50;5.93;;;5.47;;
6093;SDS011;19964;42.060;24.700;2022-08-05T02:40:21;5.13;;;4.83;;
6093;SDS011;19964;42.060;24.700;2022-08-05T02:42:50;5.17;;;4.77;;
6093;SDS011;19964;42.060;24.700;2022-08-05T02:45:19;5.50;;;5.10;;
6093;SDS011;19964;42.060;24.700;2022-08-05T02:47:49;5.77;;;5.37;;
6093;SDS011;19964;42.060;24.700;2022-08-05T02:50:18;5.30;;;4.83;;
6093;SDS011;19964;42.060;24.700;2022-08-05T02:52:47;5.63;;;5.23;;
6093;SDS011;19964;42.060;24.700;2022-08-05T02:55:14;7.00;;;5.23;;
6093;SDS011;19964;42.060;24.700;2022-08-05T02:57:42;6.00;;;5.60;;
6093;SDS011;19964;42.060;24.700;2022-08-05T03:00:11;5.40;;;5.10;;
6093;SDS011;19964;42.060;24.700;2022-08-05T03:02:39;5.30;;;5.00;;
6093;SDS011;19964;42.060;24.700;2022-08-05T03:05:10;5.70;;;5.10;;
6093;SDS011;19964;42.060;24.700;2022-08-05T03:07:40;5.70;;;5.40;;
6093;SDS011;19964;42.060;24.700;2022-08-05T03:10:08;5.90;;;5.50;;
6093;SDS011;19964;42.060;24.700;2022-08-05T03:12:36;5.70;;;5.30;;
6093;SDS011;19964;42.060;24.700;2022-08-05T03:15:05;5.50;;;5.20;;
6093;SDS011;19964;42.060;24.700;2022-08-05T03:17:33;5.80;;;5.40;;
6093;SDS011;19964;42.060;24.700;2022-08-05T03:20:00;5.50;;;5.00;;
6093;SDS011;19964;42.060;24.700;2022-08-05T03:22:29;5.50;;;5.20;;
6093;SDS011;19964;42.060;24.700;2022-08-05T03:24:56;6.70;;;4.93;;
6093;SDS011;19964;42.060;24.700;2022-08-05T03:27:23;7.30;;;5.57;;
6093;SDS011;19964;42.060;24.700;2022-08-05T03:29:51;5.77;;;5.20;;
6093;SDS011;19964;42.060;24.700;2022-08-05T03:32:18;5.50;;;5.00;;
6093;SDS011;19964;42.060;24.700;2022-08-05T03:34:46;5.63;;;5.23;;
6093;SDS011;19964;42.060;24.700;2022-08-05T03:37:13;5.83;;;5.43;;
6093;SDS011;19964;42.060;24.700;2022-08-05T03:39:51;7.07;;;5.43;;
6093;SDS011;19964;42.060;24.700;2022-08-05T03:42:22;5.80;;;5.40;;
6093;SDS011;19964;42.060;24.700;2022-08-05T03:44:49;5.60;;;5.20;;
6093;SDS011;19964;42.060;24.700;2022-08-05T03:47:16;5.87;;;5.13;;
6093;SDS011;19964;42.060;24.700;2022-08-05T03:49:43;5.83;;;5.33;;
6093;SDS011;19964;42.060;24.700;2022-08-05T03:52:11;5.70;;;5.20;;
6093;SDS011;19964;42.060;24.700;2022-08-05T03:54:47;5.65;;;5.35;;
6093;SDS011;19964;42.060;24.700;2022-08-05T03:57:21;5.87;;;5.47;;
6093;SDS011;19964;42.060;24.700;2022-08-05T03:59:52;5.47;;;5.10;;
6093;SDS011;19964;42.060;24.700;2022-08-05T04:02:22;5.77;;;5.37;;
6093;SDS011;19964;42.060;24.700;2022-08-05T04:04:54;5.40;;;5.07;;
6093;SDS011;19964;42.060;24.700;2022-08-05T04:07:22;5.50;;;5.00;;
6093;SDS011;19964;42.060;24.700;2022-08-05T04:09:50;6.17;;;4.93;;
6093;SDS011;19964;42.060;24.700;2022-08-05T04:12:18;5.83;;;5.10;;
6093;SDS011;19964;42.060;24.700;2022-08-05T04:14:47;5.73;;;4.53;;
6093;SDS011;19964;42.060;24.700;2022-08-05T04:17:14;5.63;;;5.20;;
6093;SDS011;19964;42.060;24.700;2022-08-05T04:19:42;5.00;;;4.70;;
6093;SDS011;19964;42.060;24.700;2022-08-05T04:22:10;5.57;;;5.17;;
6093;SDS011;19964;42.060;24.700;2022-08-05T04:24:38;5.10;;;4.70;;
6093;SDS011;19964;42.060;24.700;2022-08-05T04:27:06;5.67;;;5.10;;
6093;SDS011;19964;42.060;24.700;2022-08-05T04:29:34;5.40;;;4.93;;
6093;SDS011;19964;42.060;24.700;2022-08-05T04:32:01;5.53;;;5.03;;
6093;SDS011;19964;42.060;24.700;2022-08-05T04:34:29;5.07;;;4.73;;
6093;SDS011;19964;42.060;24.700;2022-08-05T04:36:55;5.20;;;4.90;;
6093;SDS011;19964;42.060;24.700;2022-08-05T04:39:22;5.33;;;4.97;;
6093;SDS011;19964;42.060;24.700;2022-08-05T04:41:49;5.03;;;4.73;;
6093;SDS011;19964;42.060;24.700;2022-08-05T04:44:16;4.90;;;4.60;;
6093;SDS011;19964;42.060;24.700;2022-08-05T04:46:45;4.57;;;4.37;;
6093;SDS011;19964;42.060;24.700;2022-08-05T04:49:12;6.45;;;5.30;;
6093;SDS011;19964;42.060;24.700;2022-08-05T04:51:39;5.40;;;4.85;;
6093;SDS011;19964;42.060;24.700;2022-08-05T04:54:06;5.28;;;4.97;;
6093;SDS011;19964;42.060;24.700;2022-08-05T04:56:33;7.60;;;4.80;;
6093;SDS011;19964;42.060;24.700;2022-08-05T04:59:00;4.75;;;4.38;;
6093;SDS011;19964;42.060;24.700;2022-08-05T05:01:27;5.85;;;4.72;;
6093;SDS011;19964;42.060;24.700;2022-08-05T05:03:56;4.55;;;4.10;;
6093;SDS011;19964;42.060;24.700;2022-08-05T05:06:22;4.30;;;4.10;;
6093;SDS011;19964;42.060;24.700;2022-08-05T05:08:50;4.53;;;4.18;;
6093;SDS011;19964;42.060;24.700;2022-08-05T05:11:17;4.47;;;4.18;;
6093;SDS011;19964;42.060;24.700;2022-08-05T05:13:44;4.72;;;4.43;;
6093;SDS011;19964;42.060;24.700;2022-08-05T05:16:11;6.00;;;4.43;;
6093;SDS011;19964;42.060;24.700;2022-08-05T05:18:39;5.70;;;4.60;;
6093;SDS011;19964;42.060;24.700;2022-08-05T05:21:09;14.20;;;5.88;;
6093;SDS011;19964;42.060;24.700;2022-08-05T05:23:36;19.85;;;6.05;;
6093;SDS011;19964;42.060;24.700;2022-08-05T05:26:03;18.98;;;5.50;;
6093;SDS011;19964;42.060;24.700;2022-08-05T05:28:30;14.10;;;5.90;;
6093;SDS011;19964;42.060;24.700;2022-08-05T05:30:57;12.45;;;5.20;;
6093;SDS011;19964;42.060;24.700;2022-08-05T05:33:24;14.52;;;5.53;;
6093;SDS011;19964;42.060;24.700;2022-08-05T05:35:51;20.52;;;6.28;;
6093;SDS011;19964;42.060;24.700;2022-08-05T05:38:20;13.95;;;5.60;;
6093;SDS011;19964;42.060;24.700;2022-08-05T05:40:47;8.15;;;5.15;;
6093;SDS011;19964;42.060;24.700;2022-08-05T05:43:13;12.50;;;5.38;;
6093;SDS011;19964;42.060;24.700;2022-08-05T05:45:40;6.97;;;5.22;;
6093;SDS011;19964;42.060;24.700;2022-08-05T05:48:07;7.85;;;5.70;;
6093;SDS011;19964;42.060;24.700;2022-08-05T05:50:35;7.63;;;6.10;;
6093;SDS011;19964;42.060;24.700;2022-08-05T05:53:04;22.38;;;7.05;;
6093;SDS011;19964;42.060;24.700;2022-08-05T05:55:34;7.68;;;6.20;;
6093;SDS011;19964;42.060;24.700;2022-08-05T05:58:01;7.53;;;6.10;;
6093;SDS011;19964;42.060;24.700;2022-08-05T06:00:28;10.07;;;6.03;;
6093;SDS011;19964;42.060;24.700;2022-08-05T06:02:55;6.90;;;5.57;;
6093;SDS011;19964;42.060;24.700;2022-08-05T06:05:22;6.38;;;5.80;;
6093;SDS011;19964;42.060;24.700;2022-08-05T06:07:49;6.60;;;6.00;;
6093;SDS011;19964;42.060;24.700;2022-08-05T06:10:17;6.72;;;5.70;;
6093;SDS011;19964;42.060;24.700;2022-08-05T06:12:45;6.35;;;5.80;;
6093;SDS011;19964;42.060;24.700;2022-08-05T06:15:12;10.40;;;5.72;;
6093;SDS011;19964;42.060;24.700;2022-08-05T06:17:39;16.05;;;6.43;;
6093;SDS011;19964;42.060;24.700;2022-08-05T06:20:07;10.98;;;6.13;;
6093;SDS011;19964;42.060;24.700;2022-08-05T06:22:34;8.05;;;5.72;;
6093;SDS011;19964;42.060;24.700;2022-08-05T06:25:01;6.03;;;5.45;;
6093;SDS011;19964;42.060;24.700;2022-08-05T06:27:32;6.40;;;5.90;;
6093;SDS011;19964;42.060;24.700;2022-08-05T06:30:00;17.00;;;6.60;;
6093;SDS011;19964;42.060;24.700;2022-08-05T06:32:27;16.77;;;6.47;;
6093;SDS011;19964;42.060;24.700;2022-08-05T06:34:55;11.63;;;6.15;;
6093;SDS011;19964;42.060;24.700;2022-08-05T06:37:23;13.52;;;6.38;;
6093;SDS011;19964;42.060;24.700;2022-08-05T06:39:50;10.80;;;6.10;;
6093;SDS011;19964;42.060;24.700;2022-08-05T06:42:17;8.88;;;5.57;;
6093;SDS011;19964;42.060;24.700;2022-08-05T06:44:44;15.68;;;6.03;;
6093;SDS011;19964;42.060;24.700;2022-08-05T06:47:13;13.98;;;5.60;;
6093;SDS011;19964;42.060;24.700;2022-08-05T06:49:40;9.88;;;5.70;;
6093;SDS011;19964;42.060;24.700;2022-08-05T06:52:07;10.15;;;5.93;;
6093;SDS011;19964;42.060;24.700;2022-08-05T06:54:33;6.53;;;5.70;;
6093;SDS011;19964;42.060;24.700;2022-08-05T06:57:01;5.80;;;5.20;;
6093;SDS011;19964;42.060;24.700;2022-08-05T06:59:28;9.48;;;5.82;;
6093;SDS011;19964;42.060;24.700;2022-08-05T07:01:54;5.70;;;5.25;;
6093;SDS011;19964;42.060;24.700;2022-08-05T07:04:23;6.13;;;5.38;;
6093;SDS011;19964;42.060;24.700;2022-08-05T07:06:50;5.50;;;5.13;;
6093;SDS011;19964;42.060;24.700;2022-08-05T07:09:17;5.32;;;4.93;;
6093;SDS011;19964;42.060;24.700;2022-08-05T07:11:44;6.93;;;5.65;;
6093;SDS011;19964;42.060;24.700;2022-08-05T07:14:11;6.07;;;5.63;;
6093;SDS011;19964;42.060;24.700;2022-08-05T07:17:01;5.68;;;5.18;;
6093;SDS011;19964;42.060;24.700;2022-08-05T07:19:29;9.52;;;5.43;;
6093;SDS011;19964;42.060;24.700;2022-08-05T07:21:57;15.38;;;5.85;;
6093;SDS011;19964;42.060;24.700;2022-08-05T07:24:24;5.47;;;4.90;;
6093;SDS011;19964;42.060;24.700;2022-08-05T07:26:51;6.28;;;4.75;;
6093;SDS011;19964;42.060;24.700;2022-08-05T07:29:18;9.75;;;5.25;;
6093;SDS011;19964;42.060;24.700;2022-08-05T07:31:45;7.15;;;5.95;;
6093;SDS011;19964;42.060;24.700;2022-08-05T07:34:12;9.07;;;5.78;;
6093;SDS011;19964;42.060;24.700;2022-08-05T07:36:41;6.50;;;5.57;;
6093;SDS011;19964;42.060;24.700;2022-08-05T07:39:08;5.28;;;4.97;;
6093;SDS011;19964;42.060;24.700;2022-08-05T07:41:35;8.18;;;4.90;;
6093;SDS011;19964;42.060;24.700;2022-08-05T07:44:03;5.00;;;4.55;;
6093;SDS011;19964;42.060;24.700;2022-08-05T07:46:31;7.30;;;5.03;;
6093;SDS011;19964;42.060;24.700;2022-08-05T07:48:59;4.82;;;4.53;;
6093;SDS011;19964;42.060;24.700;2022-08-05T07:51:27;6.05;;;4.88;;
6093;SDS011;19964;42.060;24.700;2022-08-05T07:53:55;6.50;;;5.10;;
6093;SDS011;19964;42.060;24.700;2022-08-05T07:56:22;5.80;;;4.80;;
6093;SDS011;19964;42.060;24.700;2022-08-05T07:58:49;5.38;;;4.88;;
6093;SDS011;19964;42.060;24.700;2022-08-05T08:01:17;6.65;;;4.88;;
6093;SDS011;19964;42.060;24.700;2022-08-05T08:03:44;7.63;;;5.32;;
6093;SDS011;19964;42.060;24.700;2022-08-05T08:06:11;5.45;;;4.95;;
6093;SDS011;19964;42.060;24.700;2022-08-05T08:08:38;5.30;;;4.80;;
6093;SDS011;19964;42.060;24.700;2022-08-05T08:11:07;6.70;;;4.65;;
6093;SDS011;19964;42.060;24.700;2022-08-05T08:13:34;5.00;;;4.60;;
6093;SDS011;19964;42.060;24.700;2022-08-05T08:16:01;5.22;;;4.88;;
6093;SDS011;19964;42.060;24.700;2022-08-05T08:18:28;7.05;;;4.90;;
6093;SDS011;19964;42.060;24.700;2022-08-05T08:20:55;12.02;;;4.60;;
6093;SDS011;19964;42.060;24.700;2022-08-05T08:23:22;7.47;;;4.72;;
6093;SDS011;19964;42.060;24.700;2022-08-05T08:25:49;5.28;;;4.90;;
6093;SDS011;19964;42.060;24.700;2022-08-05T08:28:18;4.65;;;4.30;;
6093;SDS011;19964;42.060;24.700;2022-08-05T08:30:45;4.65;;;4.30;;
6093;SDS011;19964;42.060;24.700;2022-08-05T08:33:12;4.57;;;4.18;;
6093;SDS011;19964;42.060;24.700;2022-08-05T08:35:39;9.60;;;4.53;;
6093;SDS011;19964;42.060;24.700;2022-08-05T08:38:06;4.72;;;4.40;;
6093;SDS011;19964;42.060;24.700;2022-08-05T08:40:34;4.72;;;4.32;;
6093;SDS011;19964;42.060;24.700;2022-08-05T08:43:02;4.75;;;4.35;;
6093;SDS011;19964;42.060;24.700;2022-08-05T08:45:31;5.80;;;4.18;;
6093;SDS011;19964;42.060;24.700;2022-08-05T08:48:00;4.40;;;3.85;;
6093;SDS011;19964;42.060;24.700;2022-08-05T08:50:30;4.45;;;3.67;;
6093;SDS011;19964;42.060;24.700;2022-08-05T08:53:00;3.90;;;3.70;;
6093;SDS011;19964;42.060;24.700;2022-08-05T08:55:30;3.60;;;3.40;;
6093;SDS011;19964;42.060;24.700;2022-08-05T08:57:58;3.75;;;3.40;;
6093;SDS011;19964;42.060;24.700;2022-08-05T09:00:26;4.00;;;3.63;;
6093;SDS011;19964;42.060;24.700;2022-08-05T09:02:54;4.07;;;3.70;;
6093;SDS011;19964;42.060;24.700;2022-08-05T09:05:22;4.97;;;3.28;;
6093;SDS011;19964;42.060;24.700;2022-08-05T09:07:50;3.70;;;3.47;;
6093;SDS011;19964;42.060;24.700;2022-08-05T09:10:17;3.90;;;3.40;;
6093;SDS011;19964;42.060;24.700;2022-08-05T09:12:45;5.70;;;3.45;;
6093;SDS011;19964;42.060;24.700;2022-08-05T09:15:12;5.35;;;3.70;;
6093;SDS011;19964;42.060;24.700;2022-08-05T09:17:40;4.53;;;3.50;;
6093;SDS011;19964;42.060;24.700;2022-08-05T09:20:09;4.72;;;3.35;;
6093;SDS011;19964;42.060;24.700;2022-08-05T09:25:36;3.92;;;3.63;;
6093;SDS011;19964;42.060;24.700;2022-08-05T09:28:08;4.30;;;3.65;;
6093;SDS011;19964;42.060;24.700;2022-08-05T09:30:37;4.78;;;3.80;;
6093;SDS011;19964;42.060;24.700;2022-08-05T09:33:07;3.90;;;3.60;;
6093;SDS011;19964;42.060;24.700;2022-08-05T09:35:36;5.05;;;4.10;;
6093;SDS011;19964;42.060;24.700;2022-08-05T09:38:05;6.35;;;3.70;;
6093;SDS011;19964;42.060;24.700;2022-08-05T09:40:34;8.40;;;3.70;;
6093;SDS011;19964;42.060;24.700;2022-08-05T09:43:05;3.63;;;3.40;;
6093;SDS011;19964;42.060;24.700;2022-08-05T09:45:38;6.53;;;3.50;;
6093;SDS011;19964;42.060;24.700;2022-08-05T09:48:19;3.50;;;3.30;;
6093;SDS011;19964;42.060;24.700;2022-08-05T09:50:51;3.97;;;3.67;;
6093;SDS011;19964;42.060;24.700;2022-08-05T09:53:18;4.53;;;3.78;;
6093;SDS011;19964;42.060;24.700;2022-08-05T09:55:48;4.15;;;3.65;;
6093;SDS011;19964;42.060;24.700;2022-08-05T09:58:17;3.85;;;3.65;;
6093;SDS011;19964;42.060;24.700;2022-08-05T10:00:51;3.55;;;3.35;;
6093;SDS011;19964;42.060;24.700;2022-08-05T10:03:22;3.50;;;3.30;;
6093;SDS011;19964;42.060;24.700;2022-08-05T10:06:00;3.97;;;3.67;;
6093;SDS011;19964;42.060;24.700;2022-08-05T10:08:29;3.83;;;3.28;;
6093;SDS011;19964;42.060;24.700;2022-08-05T10:10:56;9.48;;;3.30;;
6093;SDS011;19964;42.060;24.700;2022-08-05T10:13:25;3.40;;;3.22;;
6093;SDS011;19964;42.060;24.700;2022-08-05T10:15:53;3.88;;;3.58;;
6093;SDS011;19964;42.060;24.700;2022-08-05T10:18:22;3.67;;;3.38;;
6093;SDS011;19964;42.060;24.700;2022-08-05T10:20:52;5.07;;;4.03;;
6093;SDS011;19964;42.060;24.700;2022-08-05T10:23:23;3.83;;;3.63;;
6093;SDS011;19964;42.060;24.700;2022-08-05T10:25:53;3.92;;;3.50;;
6093;SDS011;19964;42.060;24.700;2022-08-05T10:28:20;4.07;;;3.60;;
6093;SDS011;19964;42.060;24.700;2022-08-05T10:30:49;4.13;;;3.80;;
6093;SDS011;19964;42.060;24.700;2022-08-05T10:33:17;3.78;;;3.47;;
6093;SDS011;19964;42.060;24.700;2022-08-05T10:35:44;4.15;;;3.85;;
6093;SDS011;19964;42.060;24.700;2022-08-05T10:38:11;4.68;;;3.70;;
6093;SDS011;19964;42.060;24.700;2022-08-05T10:40:43;3.65;;;3.45;;
6093;SDS011;19964;42.060;24.700;2022-08-05T10:43:22;4.40;;;4.00;;
6093;SDS011;19964;42.060;24.700;2022-08-05T10:45:57;4.15;;;3.85;;
6093;SDS011;19964;42.060;24.700;2022-08-05T10:48:28;4.88;;;3.65;;
6093;SDS011;19964;42.060;24.700;2022-08-05T10:51:00;4.10;;;3.70;;
6093;SDS011;19964;42.060;24.700;2022-08-05T10:53:36;4.07;;;3.45;;
6093;SDS011;19964;42.060;24.700;2022-08-05T10:56:10;4.03;;;3.70;;
6093;SDS011;19964;42.060;24.700;2022-08-05T11:01:32;4.40;;;3.85;;
6093;SDS011;19964;42.060;24.700;2022-08-05T11:04:05;4.10;;;3.80;;
6093;SDS011;19964;42.060;24.700;2022-08-05T11:06:35;3.90;;;3.70;;
6093;SDS011;19964;42.060;24.700;2022-08-05T11:09:25;3.92;;;3.65;;
6093;SDS011;19964;42.060;24.700;2022-08-05T11:11:54;4.00;;;3.70;;
6093;SDS011;19964;42.060;24.700;2022-08-05T11:14:24;4.28;;;4.00;;
6093;SDS011;19964;42.060;24.700;2022-08-05T11:17:23;4.28;;;3.97;;
6093;SDS011;19964;42.060;24.700;2022-08-05T11:19:54;4.03;;;3.83;;
6093;SDS011;19964;42.060;24.700;2022-08-05T11:22:42;4.15;;;3.85;;
6093;SDS011;19964;42.060;24.700;2022-08-05T11:25:30;4.43;;;4.00;;
6093;SDS011;19964;42.060;24.700;2022-08-05T11:31:17;5.00;;;4.60;;
6093;SDS011;19964;42.060;24.700;2022-08-05T11:33:52;4.82;;;4.60;;
6093;SDS011;19964;42.060;24.700;2022-08-05T11:39:11;5.28;;;4.00;;
6093;SDS011;19964;42.060;24.700;2022-08-05T11:41:41;4.60;;;4.30;;
6093;SDS011;19964;42.060;24.700;2022-08-05T11:44:16;4.22;;;3.95;;
6093;SDS011;19964;42.060;24.700;2022-08-05T11:46:46;7.65;;;4.07;;
6093;SDS011;19964;42.060;24.700;2022-08-05T11:49:15;6.60;;;4.43;;
6093;SDS011;19964;42.060;24.700;2022-08-05T11:51:44;7.50;;;4.32;;
6093;SDS011;19964;42.060;24.700;2022-08-05T11:54:13;4.75;;;4.35;;
6093;SDS011;19964;42.060;24.700;2022-08-05T11:56:47;5.07;;;4.63;;
6093;SDS011;19964;42.060;24.700;2022-08-05T11:59:17;4.95;;;4.65;;
6093;SDS011;19964;42.060;24.700;2022-08-05T12:01:52;5.82;;;4.22;;
6093;SDS011;19964;42.060;24.700;2022-08-05T12:04:20;4.72;;;4.38;;
6093;SDS011;19964;42.060;24.700;2022-08-05T12:06:48;4.68;;;4.28;;
6093;SDS011;19964;42.060;24.700;2022-08-05T12:09:16;4.60;;;4.40;;
6093;SDS011;19964;42.060;24.700;2022-08-05T12:11:46;4.50;;;4.13;;
6093;SDS011;19964;42.060;24.700;2022-08-05T12:14:13;6.88;;;4.47;;
6093;SDS011;19964;42.060;24.700;2022-08-05T12:16:42;4.93;;;4.50;;
6093;SDS011;19964;42.060;24.700;2022-08-05T12:19:11;4.93;;;4.43;;
6093;SDS011;19964;42.060;24.700;2022-08-05T12:21:43;4.63;;;4.35;;
6093;SDS011;19964;42.060;24.700;2022-08-05T12:24:14;7.65;;;4.32;;
6093;SDS011;19964;42.060;24.700;2022-08-05T12:26:43;5.07;;;4.55;;
6093;SDS011;19964;42.060;24.700;2022-08-05T12:29:12;5.07;;;4.57;;
6093;SDS011;19964;42.060;24.700;2022-08-05T12:31:45;6.05;;;4.90;;
6093;SDS011;19964;42.060;24.700;2022-08-05T12:34:13;5.43;;;4.93;;
6093;SDS011;19964;42.060;24.700;2022-08-05T12:36:42;6.72;;;4.50;;
6093;SDS011;19964;42.060;24.700;2022-08-05T12:39:11;5.50;;;4.18;;
6093;SDS011;19964;42.060;24.700;2022-08-05T12:41:39;5.55;;;4.90;;
6093;SDS011;19964;42.060;24.700;2022-08-05T12:44:07;5.15;;;4.65;;
6093;SDS011;19964;42.060;24.700;2022-08-05T12:46:36;6.30;;;4.85;;
6093;SDS011;19964;42.060;24.700;2022-08-05T12:49:07;4.70;;;4.50;;
6093;SDS011;19964;42.060;24.700;2022-08-05T12:51:45;7.88;;;5.25;;
6093;SDS011;19964;42.060;24.700;2022-08-05T12:54:19;5.30;;;4.90;;
6093;SDS011;19964;42.060;24.700;2022-08-05T12:56:48;5.00;;;4.75;;
6093;SDS011;19964;42.060;24.700;2022-08-05T12:59:17;5.65;;;5.07;;
6093;SDS011;19964;42.060;24.700;2022-08-05T13:01:52;4.95;;;4.65;;
6093;SDS011;19964;42.060;24.700;2022-08-05T13:04:24;5.10;;;4.70;;
6093;SDS011;19964;42.060;24.700;2022-08-05T13:06:54;5.68;;;4.93;;
6093;SDS011;19964;42.060;24.700;2022-08-05T13:09:22;5.00;;;4.70;;
6093;SDS011;19964;42.060;24.700;2022-08-05T13:11:50;4.95;;;4.30;;
6093;SDS011;19964;42.060;24.700;2022-08-05T13:14:26;4.45;;;4.22;;
6093;SDS011;19964;42.060;24.700;2022-08-05T13:16:55;4.63;;;4.13;;
6093;SDS011;19964;42.060;24.700;2022-08-05T13:19:25;5.50;;;4.68;;
6093;SDS011;19964;42.060;24.700;2022-08-05T13:21:54;6.07;;;4.70;;
6093;SDS011;19964;42.060;24.700;2022-08-05T13:24:22;4.47;;;4.05;;
6093;SDS011;19964;42.060;24.700;2022-08-05T13:26:49;5.78;;;4.60;;
6093;SDS011;19964;42.060;24.700;2022-08-05T13:29:17;4.90;;;4.50;;
6093;SDS011;19964;42.060;24.700;2022-08-05T13:31:45;6.05;;;4.57;;
6093;SDS011;19964;42.060;24.700;2022-08-05T13:34:12;5.15;;;4.50;;
6093;SDS011;19964;42.060;24.700;2022-08-05T13:36:41;5.07;;;4.72;;
6093;SDS011;19964;42.060;24.700;2022-08-05T13:39:08;5.05;;;4.70;;
6093;SDS011;19964;42.060;24.700;2022-08-05T13:41:37;5.05;;;4.70;;
6093;SDS011;19964;42.060;24.700;2022-08-05T13:44:04;5.20;;;4.75;;
6093;SDS011;19964;42.060;24.700;2022-08-05T13:46:32;5.32;;;5.00;;
6093;SDS011;19964;42.060;24.700;2022-08-05T13:48:59;5.03;;;4.68;;
6093;SDS011;19964;42.060;24.700;2022-08-05T13:51:29;4.53;;;4.22;;
6093;SDS011;19964;42.060;24.700;2022-08-05T13:53:59;4.72;;;4.32;;
6093;SDS011;19964;42.060;24.700;2022-08-05T13:56:26;4.70;;;4.40;;
6093;SDS011;19964;42.060;24.700;2022-08-05T13:58:53;4.40;;;3.83;;
6093;SDS011;19964;42.060;24.700;2022-08-05T14:01:20;5.50;;;4.10;;
6093;SDS011;19964;42.060;24.700;2022-08-05T14:03:48;6.47;;;4.07;;
6093;SDS011;19964;42.060;24.700;2022-08-05T14:06:28;5.03;;;4.53;;
6093;SDS011;19964;42.060;24.700;2022-08-05T14:08:56;4.82;;;4.05;;
6093;SDS011;19964;42.060;24.700;2022-08-05T14:11:25;4.47;;;4.10;;
6093;SDS011;19964;42.060;24.700;2022-08-05T14:13:53;4.57;;;4.18;;
6093;SDS011;19964;42.060;24.700;2022-08-05T14:16:21;4.28;;;4.00;;
6093;SDS011;19964;42.060;24.700;2022-08-05T14:18:48;3.95;;;3.75;;
6093;SDS011;19964;42.060;24.700;2022-08-05T14:21:15;4.55;;;4.15;;
6093;SDS011;19964;42.060;24.700;2022-08-05T14:23:42;4.32;;;4.03;;
6093;SDS011;19964;42.060;24.700;2022-08-05T14:26:09;5.05;;;4.28;;
6093;SDS011;19964;42.060;24.700;2022-08-05T14:28:38;6.13;;;4.40;;
6093;SDS011;19964;42.060;24.700;2022-08-05T14:31:05;6.88;;;4.50;;
6093;SDS011;19964;42.060;24.700;2022-08-05T14:33:32;4.30;;;4.00;;
6093;SDS011;19964;42.060;24.700;2022-08-05T14:35:59;4.72;;;4.30;;
6093;SDS011;19964;42.060;24.700;2022-08-05T14:38:27;5.07;;;4.55;;
6093;SDS011;19964;42.060;24.700;2022-08-05T14:40:54;4.30;;;4.10;;
6093;SDS011;19964;42.060;24.700;2022-08-05T14:43:21;4.43;;;4.20;;
6093;SDS011;19964;42.060;24.700;2022-08-05T14:45:50;4.72;;;4.32;;
6093;SDS011;19964;42.060;24.700;2022-08-05T14:48:17;4.18;;;3.95;;
6093;SDS011;19964;42.060;24.700;2022-08-05T14:50:44;4.43;;;3.97;;
6093;SDS011;19964;42.060;24.700;2022-08-05T14:53:11;3.78;;;3.58;;
6093;SDS011;19964;42.060;24.700;2022-08-05T14:55:38;5.10;;;4.10;;
6093;SDS011;19964;42.060;24.700;2022-08-05T14:58:05;4.07;;;3.88;;
6093;SDS011;19964;42.060;24.700;2022-08-05T15:00:33;4.28;;;4.00;;
6093;SDS011;19964;42.060;24.700;2022-08-05T15:03:02;4.32;;;4.00;;
6093;SDS011;19964;42.060;24.700;2022-08-05T15:05:30;4.60;;;4.15;;
6093;SDS011;19964;42.060;24.700;2022-08-05T15:07:57;4.07;;;3.88;;
6093;SDS011;19964;42.060;24.700;2022-08-05T15:10:24;4.38;;;3.78;;
6093;SDS011;19964;42.060;24.700;2022-08-05T15:12:51;4.10;;;3.80;;
6093;SDS011;19964;42.060;24.700;2022-08-05T15:15:18;3.80;;;3.58;;
6093;SDS011;19964;42.060;24.700;2022-08-05T15:17:45;5.40;;;4.00;;